Time;durP1;ratioP1;P1;durP2;ratioP2;P2;SDS_P1;SDS_P2;PMS_P1;PMS_P2;Temp;Humidity;BMP_temperature;BMP_pressure;BME280_temperature;BME280_humidity;BME280_pressure;Samples;Min_cycle;Max_cycle;Signal;HPM_P1;HPM_P2
2022/05/20 00:00:27;;;;;;;10.60;6.78;;;;;;;14.63;49.52;100913.17;1604526;88;25833;-78
2022/05/20 00:02:56;;;;;;;11.80;6.10;;;;;;;14.62;49.62;100913.38;1614191;87;25803;-78
2022/05/20 00:05:23;;;;;;;9.80;5.83;;;;;;;14.61;49.45;100909.02;1601149;88;27498;-77
2022/05/20 00:07:49;;;;;;;11.00;6.50;;;;;;;14.58;49.55;100903.51;1597290;88;25922;-76
2022/05/20 00:10:16;;;;;;;15.75;6.25;;;;;;;14.56;49.88;100904.23;1577143;90;25810;-78
2022/05/20 00:12:44;;;;;;;15.28;5.70;;;;;;;14.55;49.61;100893.16;1600469;88;25808;-78
2022/05/20 00:15:16;;;;;;;10.43;5.92;;;;;;;14.55;49.45;100891.81;1589109;90;26336;-79
2022/05/20 00:17:43;;;;;;;15.83;5.50;;;;;;;14.56;49.51;100889.95;1587945;90;27472;-78
2022/05/20 00:20:12;;;;;;;11.25;5.65;;;;;;;14.55;49.46;100895.02;1598296;88;25843;-78
2022/05/20 00:22:38;;;;;;;10.93;5.70;;;;;;;14.54;49.62;100894.72;1604528;87;25987;-78
2022/05/20 00:27:52;;;;;;;14.40;6.87;;;;;;;14.53;49.52;100893.05;1571793;89;25945;-78
2022/05/20 00:30:18;;;;;;;14.63;6.92;;;;;;;14.54;49.63;100894.72;1603767;88;27534;-78
2022/05/20 00:32:44;;;;;;;13.43;6.70;;;;;;;14.51;49.50;100885.68;1600127;88;25905;-78
2022/05/20 00:35:13;;;;;;;12.98;6.10;;;;;;;14.52;49.61;100890.05;1589287;90;25554;-77
2022/05/20 00:37:40;;;;;;;14.90;6.25;;;;;;;14.51;49.55;100887.03;1593972;88;26435;-78
2022/05/20 00:40:11;;;;;;;15.88;6.87;;;;;;;14.49;49.65;100881.85;1603846;86;25932;-79
2022/05/20 00:42:37;;;;;;;14.65;7.70;;;;;;;14.47;49.68;100881.73;1610794;88;27467;-78
2022/05/20 00:45:05;;;;;;;15.48;7.45;;;;;;;14.45;49.77;100882.46;1589368;90;25844;-77
2022/05/20 00:47:31;;;;;;;12.45;7.12;;;;;;;14.43;49.70;100881.33;1604258;88;25887;-78
2022/05/20 00:50:01;;;;;;;12.13;6.40;;;;;;;14.44;49.70;100878.09;1596483;88;25806;-77
2022/05/20 00:52:31;;;;;;;13.03;6.28;;;;;;;14.44;49.80;100884.83;1589614;90;25990;-78
2022/05/20 00:55:03;;;;;;;14.05;5.58;;;;;;;14.41;49.79;100879.33;1596486;88;27524;-77
2022/05/20 00:57:44;;;;;;;10.88;5.60;;;;;;;14.40;49.90;100883.07;1613901;88;26169;-78
2022/05/20 01:00:21;;;;;;;11.03;4.80;;;;;;;14.39;49.85;100878.70;1613138;88;25807;-77
2022/05/20 01:02:53;;;;;;;12.25;6.03;;;;;;;14.39;49.89;100876.01;1615059;88;26603;-78
2022/05/20 01:05:25;;;;;;;13.10;5.42;;;;;;;14.36;50.08;100872.39;1604584;88;25778;-78
2022/05/20 01:07:52;;;;;;;13.10;5.45;;;;;;;14.34;50.18;100877.16;1614218;88;27450;-77
2022/05/20 01:10:19;;;;;;;9.15;5.28;;;;;;;14.34;50.23;100877.67;1615083;88;26577;-78
2022/05/20 01:12:51;;;;;;;11.08;4.92;;;;;;;14.32;50.25;100868.95;1615406;88;25841;-76
2022/05/20 01:15:18;;;;;;;11.50;5.72;;;;;;;14.29;50.26;100875.58;1614818;88;26582;-80
2022/05/20 01:17:45;;;;;;;14.53;5.50;;;;;;;14.28;50.39;100877.11;1615632;88;25853;-78
2022/05/20 01:20:31;;;;;;;10.68;4.78;;;;;;;14.23;50.59;100868.80;1615513;88;27479;-77
2022/05/20 01:23:09;;;;;;;8.85;4.80;;;;;;;14.17;50.69;100868.27;1615314;88;25905;-78
2022/05/20 01:25:42;;;;;;;11.48;5.22;;;;;;;14.12;50.96;100866.18;1615371;88;25969;-78
2022/05/20 01:28:09;;;;;;;17.25;6.17;;;;;;;14.09;50.85;100864.42;1615591;88;26567;-78
2022/05/20 01:30:35;;;;;;;8.53;4.75;;;;;;;14.09;50.83;100857.69;1615351;88;25783;-77
2022/05/20 01:33:05;;;;;;;10.75;4.78;;;;;;;14.07;50.85;100853.83;1615472;88;28186;-77
2022/05/20 01:35:46;;;;;;;12.17;5.13;;;;;;;14.06;50.86;100848.14;1615411;88;25997;-78
2022/05/20 01:38:13;;;;;;;8.65;4.97;;;;;;;14.07;50.98;100847.09;1615590;88;26653;-78
2022/05/20 01:40:48;;;;;;;10.30;4.35;;;;;;;14.04;50.95;100838.09;1615548;88;25930;-78
2022/05/20 01:43:19;;;;;;;9.13;4.15;;;;;;;14.06;51.09;100833.84;1614412;88;25877;-79
2022/05/20 01:45:54;;;;;;;8.20;5.22;;;;;;;14.05;51.03;100828.95;1611746;88;28531;-78
2022/05/20 01:48:44;;;;;;;10.23;4.78;;;;;;;14.04;50.95;100831.36;1612405;88;25854;-77
2022/05/20 01:51:14;;;;;;;7.10;4.20;;;;;;;14.06;51.00;100831.98;1611756;88;25552;-77
2022/05/20 01:53:46;;;;;;;8.87;4.43;;;;;;;14.06;51.02;100832.48;1612298;88;25838;-77
2022/05/20 01:56:29;;;;;;;10.18;4.72;;;;;;;14.06;51.02;100831.98;1612411;88;26250;-77
2022/05/20 01:59:06;;;;;;;7.75;4.17;;;;;;;14.05;51.02;100831.66;1644344;87;27464;-77
2022/05/20 02:01:51;;;;;;;9.00;4.65;;;;;;;14.05;50.99;100833.00;1644541;87;26620;-78
2022/05/20 02:04:43;;;;;;;8.83;4.55;;;;;;;14.07;51.04;100838.20;1628787;87;25918;-78
2022/05/20 02:07:16;;;;;;;7.80;3.83;;;;;;;14.05;51.13;100841.63;1644417;87;25903;-78
2022/05/20 02:10:16;;;;;;;9.15;4.67;;;;;;;14.00;51.18;100844.92;1643750;87;25955;-78
2022/05/20 02:12:47;;;;;;;9.80;3.92;;;;;;;13.98;51.22;100839.41;1644318;87;28413;-79
2022/05/20 02:15:20;;;;;;;;;;;;;;;13.98;51.20;100838.91;1617161;88;26164;-76
2022/05/20 02:17:51;;;;;;;7.37;3.95;;;;;;;13.98;51.49;100842.95;1615236;88;25777;-76
2022/05/20 02:20:35;;;;;;;8.25;4.28;;;;;;;13.95;51.45;100835.26;1615280;88;26625;-79
2022/05/20 02:23:07;;;;;;;12.10;4.08;;;;;;;13.94;51.48;100841.16;1588282;90;25979;-78
2022/05/20 02:25:42;;;;;;;6.87;4.53;;;;;;;13.94;51.57;100840.34;1586954;90;28134;-78
2022/05/20 02:28:20;;;;;;;8.33;4.42;;;;;;;13.91;51.64;100831.31;1588443;90;25823;-79
2022/05/20 02:30:47;;;;;;;7.33;3.72;;;;;;;13.90;51.77;100828.30;1612409;88;26275;-78
2022/05/20 02:33:21;;;;;;;8.28;3.85;;;;;;;13.87;51.94;100826.86;1612263;88;25961;-81
2022/05/20 02:35:47;;;;;;;13.08;4.22;;;;;;;13.87;51.92;100824.68;1612347;88;26101;-77
2022/05/20 02:38:19;;;;;;;10.68;4.10;;;;;;;13.86;52.18;100833.77;1644557;87;27479;-79
2022/05/20 02:40:49;;;;;;;6.95;4.05;;;;;;;13.85;52.19;100826.74;1616526;88;25911;-76
2022/05/20 02:43:17;;;;;;;9.75;4.20;;;;;;;13.82;52.36;100823.09;1631980;87;25762;-78
2022/05/20 02:45:46;;;;;;;7.50;3.90;;;;;;;13.75;52.28;100829.80;1614930;88;25905;-79
2022/05/20 02:48:16;;;;;;;6.95;3.55;;;;;;;13.75;52.35;100828.45;1615375;87;25783;-76
2022/05/20 02:50:42;;;;;;;8.45;4.40;;;;;;;13.73;52.46;100817.57;1613116;87;28287;-78
2022/05/20 02:53:08;;;;;;;6.75;3.80;;;;;;;13.72;52.35;100833.42;1585231;88;25823;-78
2022/05/20 02:55:35;;;;;;;6.42;3.80;;;;;;;13.71;52.37;100821.82;1613164;87;25751;-78
2022/05/20 02:58:01;;;;;;;4.70;3.37;;;;;;;13.71;52.36;100814.25;1614520;87;25915;-77
2022/05/20 03:05:57;;;;;;;8.53;3.65;;;;;;;13.69;52.69;100794.27;1586598;88;26199;-79
2022/05/20 03:08:24;;;;;;;11.95;3.77;;;;;;;13.64;52.85;100804.80;1615973;87;26740;-78
2022/05/20 03:10:50;;;;;;;10.20;3.75;;;;;;;13.60;52.86;100807.59;1592829;88;25779;-78
2022/05/20 03:13:18;;;;;;;6.83;3.77;;;;;;;13.61;53.09;100805.23;1588889;88;25340;-76
2022/05/20 03:15:45;;;;;;;12.55;3.90;;;;;;;13.62;53.02;100816.29;1592565;88;28439;-77
2022/05/20 03:18:13;;;;;;;10.95;4.20;;;;;;;13.61;53.07;100803.88;1607692;87;26206;-78
2022/05/20 03:20:41;;;;;;;11.70;4.00;;;;;;;13.63;53.20;100801.81;1595046;88;25964;-76
2022/05/20 03:23:09;;;;;;;9.45;3.52;;;;;;;13.64;53.19;100799.42;1606129;87;26209;-79
2022/05/20 03:25:38;;;;;;;8.23;3.72;;;;;;;13.66;53.11;100793.86;1593920;88;25937;-77
2022/05/20 03:28:05;;;;;;;13.03;4.75;;;;;;;13.67;53.11;100797.69;1590296;90;28280;-76
2022/05/20 03:30:31;;;;;;;9.40;4.20;;;;;;;13.67;53.24;100793.64;1592888;88;25734;-78
2022/05/20 03:32:58;;;;;;;11.08;4.03;;;;;;;13.67;53.29;100790.12;1603082;88;26515;-78
2022/05/20 03:35:24;;;;;;;10.72;4.25;;;;;;;13.67;53.46;100795.50;1602427;88;25941;-78
2022/05/20 03:37:50;;;;;;;9.43;4.22;;;;;;;13.65;53.59;100802.95;1581717;90;25841;-77
2022/05/20 03:40:17;;;;;;;8.85;4.12;;;;;;;13.61;53.59;100808.42;1589495;90;27717;-78
2022/05/20 03:42:43;;;;;;;8.13;4.20;;;;;;;13.60;53.54;100803.55;1599608;88;26640;-76
2022/05/20 03:45:10;;;;;;;6.78;4.03;;;;;;;13.62;53.70;100804.72;1608878;88;25782;-79
2022/05/20 03:47:36;;;;;;;7.05;3.52;;;;;;;13.65;53.70;100798.91;1600772;88;26099;-76
2022/05/20 03:50:04;;;;;;;7.00;3.83;;;;;;;13.69;53.77;100793.44;1600419;88;25764;-77
2022/05/20 03:52:31;;;;;;;4.95;3.33;;;;;;;13.72;53.83;100803.81;1613316;88;28290;-77
2022/05/20 03:54:58;;;;;;;5.87;3.45;;;;;;;13.72;53.79;100806.00;1612823;87;25885;-78
2022/05/20 03:57:24;;;;;;;8.55;3.90;;;;;;;13.77;53.78;100797.31;1623593;86;26501;-78
2022/05/20 03:59:51;;;;;;;7.53;3.10;;;;;;;13.81;53.78;100790.49;1608553;88;25914;-78
2022/05/20 04:02:17;;;;;;;7.55;4.05;;;;;;;13.86;54.03;100797.42;1588673;90;26106;-79
2022/05/20 04:04:49;;;;;;;6.30;2.92;;;;;;;13.89;54.05;100801.06;1604504;88;27450;-77
2022/05/20 04:07:25;;;;;;;6.33;2.58;;;;;;;13.93;53.97;100800.46;1616673;87;25838;-78
2022/05/20 04:09:54;;;;;;;5.95;2.80;;;;;;;13.96;54.12;100799.23;1589546;88;25426;-76
2022/05/20 04:12:28;;;;;;;10.85;2.98;;;;;;;14.03;54.12;100798.70;1604251;88;25852;-78
2022/05/20 04:14:56;;;;;;;7.33;2.80;;;;;;;14.10;54.11;100794.68;1603751;88;25952;-80
2022/05/20 04:17:23;;;;;;;4.72;2.83;;;;;;;14.19;54.17;100788.07;1577599;88;28255;-78
2022/05/20 04:19:49;;;;;;;6.42;2.67;;;;;;;14.27;54.09;100775.73;1597096;88;25822;-77
2022/05/20 04:22:20;;;;;;;7.45;2.25;;;;;;;14.37;54.35;100770.28;1609584;86;25822;-77
2022/05/20 04:24:46;;;;;;;7.28;2.22;;;;;;;14.46;54.20;100765.52;1626603;87;25859;-78
2022/05/20 04:27:13;;;;;;;12.25;3.02;;;;;;;14.55;54.00;100752.14;1611356;87;25856;-78
2022/05/20 04:29:39;;;;;;;7.62;2.92;;;;;;;14.66;54.24;100746.95;1615173;88;28026;-78
2022/05/20 04:32:06;;;;;;;6.47;2.52;;;;;;;14.80;54.32;100749.64;1602383;88;25799;-76
2022/05/20 04:34:32;;;;;;;5.92;3.00;;;;;;;14.92;54.33;100770.87;1583306;89;26034;-77
2022/05/20 04:36:58;;;;;;;8.23;2.67;;;;;;;15.04;54.49;100774.05;1589276;90;25852;-78
2022/05/20 04:39:25;;;;;;;5.12;2.42;;;;;;;15.16;54.37;100778.28;1592373;88;25668;-77
2022/05/20 04:47:29;;;;;;;9.03;2.50;;;;;;;15.48;53.80;100786.83;1604728;88;25727;-77
2022/05/20 04:49:57;;;;;;;6.10;2.25;;;;;;;15.56;53.26;100785.22;1614492;88;26484;-78
2022/05/20 04:52:23;;;;;;;8.38;2.65;;;;;;;15.63;53.35;100768.45;1594251;88;25949;-78
2022/05/20 04:54:51;;;;;;;5.62;2.65;;;;;;;15.70;53.13;100775.17;1608958;88;27477;-77
2022/05/20 04:57:38;;;;;;;7.33;2.55;;;;;;;15.73;52.98;100772.89;1589348;89;25805;-78
2022/05/20 05:00:17;;;;;;;6.95;2.15;;;;;;;15.74;52.72;100768.31;1571429;90;25820;-79
2022/05/20 05:02:44;;;;;;;8.23;3.92;;;;;;;15.76;52.70;100775.68;1631370;87;25828;-77
2022/05/20 05:05:16;;;;;;;15.08;3.80;;;;;;;15.79;52.66;100776.06;1624054;87;25957;-78
2022/05/20 05:07:47;;;;;;;3.98;2.83;;;;;;;15.81;52.72;100779.37;1596698;87;27528;-78
2022/05/20 05:10:18;;;;;;;5.87;3.02;;;;;;;15.85;52.67;100773.84;1614744;87;26628;-78
2022/05/20 05:12:45;;;;;;;6.17;2.70;;;;;;;15.91;52.69;100778.92;1614042;88;25888;-77
2022/05/20 05:15:14;;;;;;;6.67;2.65;;;;;;;15.98;52.38;100784.58;1633273;87;26013;-78
2022/05/20 05:20:28;;;;;;;4.83;2.12;;;;;;;16.27;52.60;100773.69;1612692;88;28371;-78
2022/05/20 05:22:57;;;;;;;10.60;3.58;;;;;;;16.41;52.75;100767.11;1612049;88;25844;-77
2022/05/20 05:25:28;;;;;;;6.40;2.65;;;;;;;16.58;52.79;100768.77;1639238;87;25847;-77
2022/05/20 05:27:54;;;;;;;12.53;3.40;;;;;;;16.69;52.55;100772.11;1633555;87;26009;-77
2022/05/20 05:30:22;;;;;;;4.65;2.47;;;;;;;16.73;51.71;100776.84;1602814;88;26820;-79
2022/05/20 05:32:49;;;;;;;7.47;2.30;;;;;;;16.74;51.33;100777.69;1614794;88;27496;-79
2022/05/20 05:35:21;;;;;;;5.12;1.98;;;;;;;16.75;51.18;100784.73;1576472;89;25390;-78
2022/05/20 05:37:48;;;;;;;6.42;2.55;;;;;;;16.75;51.04;100786.09;1605877;88;25978;-79
2022/05/20 05:40:24;;;;;;;6.87;2.25;;;;;;;16.75;50.97;100790.14;1576753;90;26945;-77
2022/05/20 05:42:51;;;;;;;3.30;2.22;;;;;;;16.81;50.79;100790.60;1607722;88;25841;-77
2022/05/20 05:45:21;;;;;;;5.55;2.15;;;;;;;16.94;50.86;100784.55;1614816;88;27708;-78
2022/05/20 05:47:55;;;;;;;6.15;2.40;;;;;;;17.13;50.87;100779.17;1614878;87;26013;-78
2022/05/20 05:50:22;;;;;;;5.08;2.22;;;;;;;17.35;50.69;100773.06;1577089;90;25859;-78
2022/05/20 05:53:12;;;;;;;3.42;1.98;;;;;;;17.58;51.07;100771.86;1589022;90;25865;-79
2022/05/20 05:55:40;;;;;;;7.37;2.12;;;;;;;17.73;50.26;100763.88;1589474;90;26237;-79
2022/05/20 05:58:06;;;;;;;9.88;2.72;;;;;;;17.79;49.82;100775.15;1604547;88;27488;-79
2022/05/20 06:00:32;;;;;;;3.52;2.15;;;;;;;17.83;49.90;100777.17;1599250;88;25918;-78
2022/05/20 06:02:59;;;;;;;4.12;2.02;;;;;;;17.87;49.74;100778.88;1603651;88;26019;-79
2022/05/20 06:05:25;;;;;;;6.78;2.20;;;;;;;17.90;49.70;100781.95;1601872;88;25833;-78
2022/05/20 06:07:51;;;;;;;8.08;2.10;;;;;;;17.93;49.59;100774.72;1608874;88;25529;-78
2022/05/20 06:10:18;;;;;;;6.22;2.45;;;;;;;17.96;49.70;100776.16;1589678;90;27513;-79
2022/05/20 06:12:45;;;;;;;6.17;2.40;;;;;;;17.99;50.07;100776.52;1609612;86;26595;-78
2022/05/20 06:15:16;;;;;;;6.62;2.22;;;;;;;17.99;49.76;100769.73;1589144;88;26636;-78
2022/05/20 06:17:43;;;;;;;6.55;2.50;;;;;;;18.01;49.88;100772.20;1604777;88;25874;-78
2022/05/20 06:20:11;;;;;;;8.25;2.55;;;;;;;18.04;49.83;100779.89;1614707;88;25760;-78
2022/05/20 06:22:37;;;;;;;7.50;2.45;;;;;;;18.05;49.53;100774.78;1611646;88;27467;-80
2022/05/20 06:25:05;;;;;;;5.25;2.25;;;;;;;18.05;49.78;100768.00;1589396;90;25848;-78
2022/05/20 06:27:32;;;;;;;7.15;2.60;;;;;;;18.04;49.56;100768.52;1593121;88;25874;-79
2022/05/20 06:29:59;;;;;;;10.25;2.27;;;;;;;18.06;49.94;100773.18;1607223;88;26012;-79
2022/05/20 06:32:25;;;;;;;9.68;2.33;;;;;;;18.09;50.13;100769.99;1610435;88;25907;-77
2022/05/20 06:40:21;;;;;;;5.67;2.60;;;;;;;18.20;50.55;100778.69;1598972;88;25881;-78
2022/05/20 06:42:48;;;;;;;10.18;2.30;;;;;;;18.26;50.66;100773.69;1606022;88;25765;-77
2022/05/20 06:45:15;;;;;;;6.80;2.70;;;;;;;18.38;50.47;100779.15;1617491;87;25830;-79
2022/05/20 06:47:42;;;;;;;10.63;2.45;;;;;;;18.50;50.48;100766.45;1614529;87;28348;-79
2022/05/20 06:50:12;;;;;;;11.03;2.67;;;;;;;18.62;50.34;100764.59;1625844;87;25830;-77
2022/05/20 06:52:38;;;;;;;7.15;2.50;;;;;;;18.71;50.42;100765.87;1634727;87;25845;-78
2022/05/20 06:55:06;;;;;;;5.40;2.70;;;;;;;18.81;50.60;100757.16;1615131;88;26451;-77
2022/05/20 06:57:38;;;;;;;6.80;2.58;;;;;;;18.92;50.15;100768.02;1614449;88;25931;-77
2022/05/20 07:00:07;;;;;;;4.87;2.58;;;;;;;19.01;49.94;100762.50;1577602;90;27628;-77
2022/05/20 07:02:33;;;;;;;6.97;2.70;;;;;;;19.09;49.94;100767.59;1603507;88;25863;-80
2022/05/20 07:05:03;;;;;;;9.53;2.58;;;;;;;19.16;50.27;100761.48;1578823;90;26012;-78
2022/05/20 07:07:28;;;;;;;4.28;2.42;;;;;;;19.23;50.47;100756.75;1610799;88;25802;-79
2022/05/20 07:09:54;;;;;;;5.35;2.60;;;;;;;19.32;50.35;100768.06;1589745;90;25887;-79
2022/05/20 07:12:20;;;;;;;9.85;2.62;;;;;;;19.41;50.60;100764.48;1614581;88;27581;-78
2022/05/20 07:14:46;;;;;;;5.60;2.35;;;;;;;19.46;50.14;100765.39;1607949;86;26033;-77
2022/05/20 07:17:17;;;;;;;8.53;2.92;;;;;;;19.50;50.01;100759.80;1589255;90;26345;-77
2022/05/20 07:19:44;;;;;;;6.28;2.87;;;;;;;19.53;49.79;100760.66;1589580;88;26571;-76
2022/05/20 07:22:12;;;;;;;6.47;2.92;;;;;;;19.58;49.57;100763.48;1609752;88;25929;-78
2022/05/20 07:24:38;;;;;;;5.28;2.30;;;;;;;19.60;49.67;100764.07;1589812;88;28282;-79
2022/05/20 07:27:05;;;;;;;7.62;2.87;;;;;;;19.67;49.75;100761.21;1609298;86;26043;-78
2022/05/20 07:29:31;;;;;;;6.90;3.00;;;;;;;19.71;49.99;100756.41;1589887;88;26571;-77
2022/05/20 07:31:57;;;;;;;6.60;2.67;;;;;;;19.76;49.97;100759.77;1606437;88;26570;-80
2022/05/20 07:34:24;;;;;;;6.33;2.52;;;;;;;19.85;49.97;100759.64;1589319;90;26485;-79
2022/05/20 07:36:50;;;;;;;10.08;3.55;;;;;;;19.97;50.08;100761.23;1589574;90;27668;-78
2022/05/20 07:39:16;;;;;;;10.75;3.98;;;;;;;20.09;49.54;100760.35;1593699;88;25854;-78
2022/05/20 07:41:43;;;;;;;5.10;3.02;;;;;;;20.17;49.18;100759.95;1589410;90;26588;-80
2022/05/20 07:44:09;;;;;;;6.45;3.10;;;;;;;20.22;49.21;100758.19;1572403;90;25945;-78
2022/05/20 07:46:35;;;;;;;7.75;3.22;;;;;;;20.27;49.20;100750.13;1594214;88;25895;-79
2022/05/20 07:49:01;;;;;;;12.80;3.77;;;;;;;20.34;49.75;100748.05;1603156;88;27476;-76
2022/05/20 07:51:31;;;;;;;7.53;3.25;;;;;;;20.47;49.52;100745.00;1614924;87;25730;-77
2022/05/20 07:54:05;;;;;;;11.60;3.70;;;;;;;20.62;49.84;100733.52;1626356;87;26499;-81
2022/05/20 07:56:40;;;;;;;9.65;2.98;;;;;;;20.79;49.07;100735.68;1585250;88;26222;-78
2022/05/20 07:59:19;;;;;;;11.40;3.10;;;;;;;20.96;49.28;100741.92;1593546;88;25895;-78
2022/05/20 08:01:50;;;;;;;5.97;3.08;;;;;;;21.13;48.78;100745.98;1621029;87;27487;-82
2022/05/20 08:07:23;;;;;;;7.80;2.83;;;;;;;21.32;48.00;100742.70;1602417;88;26387;-78
2022/05/20 08:09:49;;;;;;;7.85;2.90;;;;;;;21.45;48.49;100745.58;1605038;88;26520;-79
2022/05/20 08:12:15;;;;;;;6.37;3.12;;;;;;;21.57;47.77;100734.02;1593769;88;25830;-78
2022/05/20 08:14:41;;;;;;;4.95;2.85;;;;;;;21.69;48.29;100724.31;1582153;90;27480;-77
2022/05/20 08:17:08;;;;;;;6.87;2.95;;;;;;;21.81;47.29;100728.54;1589231;90;25909;-79
2022/05/20 08:19:34;;;;;;;5.58;2.80;;;;;;;21.88;47.27;100729.20;1589588;90;25807;-80
2022/05/20 08:22:01;;;;;;;8.45;3.22;;;;;;;21.91;46.45;100723.23;1599691;88;26017;-79
2022/05/20 08:24:27;;;;;;;4.83;2.37;;;;;;;21.96;46.64;100731.45;1602925;88;25951;-80
2022/05/20 08:26:53;;;;;;;8.38;3.35;;;;;;;22.02;46.75;100735.91;1602005;88;27481;-77
2022/05/20 08:29:20;;;;;;;7.65;2.70;;;;;;;22.10;46.37;100729.97;1593031;88;26586;-78
2022/05/20 08:31:46;;;;;;;5.72;2.90;;;;;;;22.16;46.14;100735.74;1606192;88;25884;-78
2022/05/20 08:34:13;;;;;;;6.40;3.20;;;;;;;22.22;46.61;100730.61;1604506;88;25810;-77
2022/05/20 08:36:40;;;;;;;9.68;3.02;;;;;;;22.31;46.22;100726.86;1604678;88;25796;-77
2022/05/20 08:39:10;;;;;;;9.83;3.50;;;;;;;22.39;46.37;100723.64;1605442;88;27107;-78
2022/05/20 08:41:41;;;;;;;9.50;3.65;;;;;;;22.48;45.85;100728.91;1606458;88;25968;-77
2022/05/20 08:44:12;;;;;;;5.80;3.00;;;;;;;22.55;46.05;100725.42;1614994;88;25776;-77
2022/05/20 08:46:40;;;;;;;8.43;2.77;;;;;;;22.68;46.25;100725.53;1609361;88;26724;-81
2022/05/20 08:49:13;;;;;;;6.42;2.67;;;;;;;22.80;45.42;100718.78;1598435;88;25967;-78
2022/05/20 08:51:49;;;;;;;5.17;2.83;;;;;;;22.87;46.30;100720.75;1609001;87;27494;-78
2022/05/20 08:54:17;;;;;;;5.15;3.58;;;;;;;23.01;45.99;100719.17;1604133;88;25838;-79
2022/05/20 08:56:44;;;;;;;9.35;3.52;;;;;;;23.15;44.88;100716.80;1608894;88;25750;-78
2022/05/20 08:59:18;;;;;;;7.30;3.10;;;;;;;23.22;44.39;100707.81;1589625;90;25795;-78
2022/05/20 09:01:51;;;;;;;9.08;2.70;;;;;;;23.31;46.29;100704.81;1599954;88;25824;-77
2022/05/20 09:04:22;;;;;;;7.12;3.20;;;;;;;23.50;45.45;100706.58;1589700;90;27730;-78
2022/05/20 09:07:15;;;;;;;7.20;3.92;;;;;;;23.66;45.12;100704.97;1615090;87;25878;-80
2022/05/20 09:09:57;;;;;;;3.40;3.10;;;;;;;23.83;45.83;100706.63;1606817;88;25821;-78
2022/05/20 09:12:33;;;;;;;9.50;3.12;;;;;;;24.01;45.95;100704.21;1605031;88;26230;-78
2022/05/20 09:15:50;;;;;;;8.83;3.58;;;;;;;24.09;44.64;100706.44;1587770;90;25951;-79
2022/05/20 09:17:46;;;;;;;5.47;2.90;;;;;;;24.08;44.35;100702.61;1590306;88;27473;-78
2022/05/20 09:20:17;;;;;;;6.75;3.17;;;;;;;24.16;44.56;100702.89;1589602;90;25843;-78
2022/05/20 09:23:04;;;;;;;11.40;3.40;;;;;;;24.28;45.37;100703.96;1596266;88;26629;-79
2022/05/20 09:25:34;;;;;;;8.25;3.95;;;;;;;24.45;46.04;100707.23;1605215;88;26582;-77
2022/05/20 09:28:18;;;;;;;;;;;;;;;24.53;44.87;100710.23;1617182;88;26559;-77
2022/05/20 09:30:49;;;;;;;5.97;2.60;;;;;;;24.46;44.96;100704.22;1641436;87;27498;-77
2022/05/20 09:33:27;;;;;;;11.57;3.20;;;;;;;24.41;45.31;100700.67;1602497;87;25755;-79
2022/05/20 09:36:00;;;;;;;4.85;3.08;;;;;;;24.42;44.91;100694.91;1606925;88;26004;-78
2022/05/20 09:38:42;;;;;;;4.58;2.95;;;;;;;24.36;45.47;100697.39;1604708;88;25850;-77
2022/05/20 09:41:15;;;;;;;5.20;3.72;;;;;;;24.35;45.89;100691.66;1606231;88;25972;-78
2022/05/20 09:43:47;;;;;;;4.85;2.90;;;;;;;24.44;46.19;100688.61;1623109;86;27574;-79
2022/05/20 09:46:21;;;;;;;5.85;3.27;;;;;;;24.56;45.32;100691.61;1593882;88;25789;-79
2022/05/20 09:48:52;;;;;;;5.17;2.55;;;;;;;24.66;46.08;100688.30;1544630;90;25874;-79
2022/05/20 09:51:22;;;;;;;;;;;;;;;24.85;46.25;100690.75;1594911;88;26604;-79
2022/05/20 09:54:16;;;;;;;10.40;2.90;;;;;;;24.95;45.01;100685.27;1620600;86;25943;-78
2022/05/20 09:56:59;;;;;;;8.38;4.17;;;;;;;24.97;45.67;100681.69;1636732;85;27461;-77
2022/05/20 09:59:54;;;;;;;4.62;2.80;;;;;;;25.01;45.38;100668.23;1619849;87;26673;-78
2022/05/20 10:02:38;;;;;;;4.47;2.60;;;;;;;25.09;45.74;100677.24;1593350;88;25786;-78
2022/05/20 10:05:33;;;;;;;6.12;3.00;;;;;;;25.19;45.33;100669.00;1605441;87;25815;-78
2022/05/20 10:08:25;;;;;;;8.83;3.05;;;;;;;25.35;45.17;100673.29;1607200;87;25929;-77
2022/05/20 10:14:23;;;;;;;6.17;3.33;;;;;;;25.63;46.02;100662.19;1629081;84;26804;-78
2022/05/20 10:16:59;;;;;;;5.00;2.10;;;;;;;25.75;44.58;100664.84;1642733;87;25838;-78
2022/05/20 10:19:52;;;;;;;9.45;2.77;;;;;;;25.82;44.43;100660.41;1625705;87;25837;-78
2022/05/20 10:22:43;;;;;;;5.55;2.92;;;;;;;25.86;42.96;100654.61;1643921;86;25994;-79
2022/05/20 10:25:36;;;;;;;12.28;6.62;;;;;;;25.83;42.58;100649.71;1616615;87;28574;-78
2022/05/20 10:32:34;;;;;;;6.17;2.37;;;;;;;25.82;42.99;100650.80;1617027;88;25992;-76
2022/05/20 10:33:58;;;;;;;5.00;2.07;;;;;;;25.84;43.48;100650.78;1633151;82;25811;31
2022/05/20 10:36:42;;;;;;;4.05;2.02;;;;;;;25.86;43.12;100651.32;1621664;84;26789;-79
2022/05/20 10:39:26;;;;;;;6.40;2.90;;;;;;;25.87;42.78;100652.97;1646247;86;28329;-77
2022/05/20 10:42:24;;;;;;;8.33;2.60;;;;;;;25.97;44.03;100641.08;1625052;87;25830;-77
2022/05/20 10:48:36;;;;;;;5.92;2.20;;;;;;;26.08;43.37;100641.81;1664845;84;26574;-78
2022/05/20 10:51:27;;;;;;;6.30;2.00;;;;;;;26.12;42.62;100649.22;1674442;84;25796;-77
2022/05/20 10:54:29;;;;;;;4.30;1.98;;;;;;;26.21;43.90;100639.80;1680440;84;27452;-79
2022/05/20 10:57:20;;;;;;;2.65;2.02;;;;;;;26.33;43.48;100643.80;1676550;84;25821;-77
2022/05/20 11:00:07;;;;;;;4.85;1.75;;;;;;;26.44;44.32;100636.27;1671325;84;26319;-79
2022/05/20 11:02:50;;;;;;;10.53;1.70;;;;;;;26.57;44.04;100635.59;1681487;84;26040;-79
2022/05/20 11:05:54;;;;;;;6.17;2.27;;;;;;;26.70;42.52;100643.97;1683039;84;26510;-77
2022/05/20 11:08:47;;;;;;;3.15;2.02;;;;;;;26.72;41.79;100636.80;1679962;84;28305;-78
2022/05/20 11:11:34;;;;;;;3.08;1.60;;;;;;;26.79;41.67;100637.30;1692214;84;25929;-79
2022/05/20 11:14:47;;;;;;;7.70;1.87;;;;;;;26.82;42.26;100624.91;1686357;84;25883;-78
2022/05/20 11:17:56;;;;;;;7.92;2.58;;;;;;;26.85;42.01;100639.42;1669899;84;26001;-78
2022/05/20 11:20:48;;;;;;;3.15;2.30;;;;;;;26.87;41.21;100628.95;1664808;86;26221;-79
2022/05/20 11:23:54;;;;;;;5.70;2.15;;;;;;;26.94;42.93;100633.55;1669373;85;27597;-79
2022/05/20 11:26:46;;;;;;;4.40;1.80;;;;;;;26.98;41.81;100617.55;1641605;87;25928;-82
2022/05/20 11:29:24;;;;;;;8.40;1.80;;;;;;;26.91;41.49;100624.50;1640909;86;26532;-80
2022/05/20 11:32:11;;;;;;;14.55;1.62;;;;;;;27.05;40.61;100619.94;1649759;85;26828;-80
2022/05/20 11:35:11;;;;;;;7.12;1.60;;;;;;;27.12;40.12;100614.32;1683973;84;26406;-80
2022/05/20 11:37:52;;;;;;;5.78;1.30;;;;;;;27.17;38.88;100621.14;1693119;84;27497;-79
2022/05/20 11:40:36;;;;;;;7.70;1.72;;;;;;;27.17;39.59;100617.02;1684244;84;26817;-80
2022/05/20 11:43:25;;;;;;;5.33;1.60;;;;;;;27.24;39.56;100616.66;1684094;84;25811;-80
2022/05/20 11:46:14;;;;;;;1.82;1.27;;;;;;;27.28;38.85;100619.06;1678388;84;26580;-80
2022/05/20 11:49:01;;;;;;;6.85;1.35;;;;;;;27.22;39.53;100614.17;1681628;84;25791;-77
2022/05/20 11:51:59;;;;;;;15.00;2.02;;;;;;;27.24;39.63;100616.66;1666422;84;27483;-77
2022/05/20 11:54:43;;;;;;;6.75;1.67;;;;;;;27.30;39.76;100612.71;1677634;84;25920;-79
2022/05/20 11:57:23;;;;;;;9.55;1.32;;;;;;;27.42;39.56;100602.92;1676845;84;25832;-79
2022/05/20 12:00:17;;;;;;;8.00;1.47;;;;;;;27.48;38.68;100605.03;1682528;84;26578;-79
2022/05/20 12:02:52;;;;;;;6.37;1.82;;;;;;;27.47;39.12;100597.36;1678806;84;26230;-78
2022/05/20 12:05:25;;;;;;;8.30;2.05;;;;;;;27.53;38.92;100597.26;1679409;84;27477;-78
2022/05/20 12:07:52;;;;;;;6.55;1.40;;;;;;;27.53;37.33;100603.59;1683195;84;25936;-77
2022/05/20 12:10:41;;;;;;;4.30;1.77;;;;;;;27.51;38.14;100605.82;1677647;84;25789;-77
2022/05/20 12:13:19;;;;;;;8.03;1.57;;;;;;;27.53;37.32;100593.13;1686265;84;25800;-78
2022/05/20 12:16:07;;;;;;;6.62;2.08;;;;;;;27.54;37.16;100592.86;1681697;84;26453;-78
2022/05/20 12:24:30;;;;;;;3.08;1.57;;;;;;;27.54;37.35;100590.66;1665924;84;25889;-78
2022/05/20 12:26:57;;;;;;;6.15;1.67;;;;;;;27.47;36.44;100593.78;1682208;84;25858;-77
2022/05/20 12:29:43;;;;;;;3.00;1.60;;;;;;;27.28;35.31;100597.89;1670432;84;25945;-78
2022/05/20 12:32:36;;;;;;;12.73;1.87;;;;;;;27.28;35.34;100581.94;1663823;84;27483;-79